Time;durP1;ratioP1;P1;durP2;ratioP2;P2;SDS_P1;SDS_P2;PMS_P1;PMS_P2;Temp;Humidity;BMP_temperature;BMP_pressure;BME280_temperature;BME280_humidity;BME280_pressure;Samples;Min_cycle;Max_cycle;Signal;HPM_P1;HPM_P2
2023/08/20 00:00:56;;;;;;;5.78;5.28;;;;;;;16.49;100.00;93545.25;2076995;28;20120;-82
2023/08/20 00:02:01;;;;;;;6.53;5.90;;;;;;;16.50;100.00;93541.34;2085854;28;20029;-83
2023/08/20 00:03:13;;;;;;;6.35;5.50;;;;;;;16.52;100.00;93543.63;2099832;28;20116;-82
2023/08/20 00:04:14;;;;;;;5.65;5.25;;;;;;;16.55;100.00;93546.19;2090366;28;20024;-83
2023/08/20 00:05:15;;;;;;;5.95;4.80;;;;;;;16.55;100.00;93543.50;2090663;28;20021;-83
2023/08/20 00:06:17;;;;;;;6.82;5.07;;;;;;;16.48;100.00;93540.28;2093350;28;20118;-82
2023/08/20 00:07:41;;;;;;;8.95;5.38;;;;;;;16.50;100.00;93544.03;2096511;28;20075;-83
2023/08/20 00:08:42;;;;;;;5.85;5.28;;;;;;;16.49;100.00;93539.09;2086817;28;20082;-83
2023/08/20 00:09:43;;;;;;;5.88;5.28;;;;;;;16.43;100.00;93543.56;2095519;28;20354;-82
2023/08/20 00:10:44;;;;;;;7.28;5.65;;;;;;;16.47;100.00;93544.94;2093484;28;20021;-82
2023/08/20 00:11:45;;;;;;;6.97;5.30;;;;;;;16.47;100.00;93536.84;2096657;28;20054;-83
2023/08/20 00:12:46;;;;;;;6.10;5.60;;;;;;;16.40;100.00;93536.34;2091798;28;20449;-83
2023/08/20 00:13:47;;;;;;;7.05;5.47;;;;;;;16.30;100.00;93538.25;2092715;28;20378;-82
2023/08/20 00:15:05;;;;;;;6.20;4.78;;;;;;;16.33;100.00;93540.84;2079502;28;20522;-82
2023/08/20 00:16:07;;;;;;;6.00;5.45;;;;;;;16.31;100.00;93539.75;2088633;28;20055;-83
2023/08/20 00:17:09;;;;;;;7.82;5.10;;;;;;;16.41;100.00;93527.06;2106792;28;20468;-83
2023/08/20 00:18:10;;;;;;;5.45;4.60;;;;;;;16.33;100.00;93542.75;2103420;28;20542;-83
2023/08/20 00:19:11;;;;;;;7.68;5.47;;;;;;;16.40;100.00;93542.50;2089588;28;20033;-81
2023/08/20 00:20:14;;;;;;;6.32;5.10;;;;;;;16.43;100.00;93538.19;2081880;28;20107;-82
2023/08/20 00:21:15;;;;;;;8.82;5.10;;;;;;;16.45;100.00;93538.47;2071527;28;20033;-83
2023/08/20 00:22:18;;;;;;;6.07;4.82;;;;;;;16.46;100.00;93538.06;2075210;28;20537;-83
2023/08/20 00:23:19;;;;;;;5.95;5.43;;;;;;;16.49;100.00;93539.09;2082405;28;20096;-83
2023/08/20 00:24:20;;;;;;;9.40;5.55;;;;;;;16.61;100.00;93540.97;2077660;28;20494;-84
2023/08/20 00:25:21;;;;;;;5.97;5.47;;;;;;;16.45;100.00;93539.22;2080758;28;20046;-84
2023/08/20 00:26:22;;;;;;;5.85;5.20;;;;;;;16.38;100.00;93534.13;2089851;28;20051;-83
2023/08/20 00:27:23;;;;;;;6.47;5.40;;;;;;;16.33;100.00;93535.44;2088827;28;20064;-84
2023/08/20 00:28:24;;;;;;;7.65;5.00;;;;;;;16.33;100.00;93537.34;2081706;28;20029;-83
2023/08/20 00:29:25;;;;;;;10.73;5.45;;;;;;;16.35;100.00;93540.38;2084652;28;20063;-83
2023/08/20 00:30:26;;;;;;;6.82;5.18;;;;;;;16.33;100.00;93537.34;2106625;28;20066;-83
2023/08/20 00:31:28;;;;;;;7.57;5.55;;;;;;;16.34;100.00;93536.19;2089649;28;20452;-83
2023/08/20 00:32:29;;;;;;;5.88;5.28;;;;;;;16.32;100.00;93535.88;2073062;28;20033;-83
2023/08/20 00:33:31;;;;;;;6.10;5.50;;;;;;;16.24;100.00;93532.69;2081605;28;20109;-82
2023/08/20 00:34:32;;;;;;;6.20;5.60;;;;;;;16.24;100.00;93538.09;2081994;28;20040;-83
2023/08/20 00:35:33;;;;;;;6.15;5.65;;;;;;;16.23;100.00;93541.97;2089811;28;20021;-82
2023/08/20 00:36:34;;;;;;;9.02;5.45;;;;;;;16.21;100.00;93533.56;2081839;28;20108;-84
2023/08/20 00:37:35;;;;;;;7.50;5.28;;;;;;;16.24;100.00;93542.72;2097421;28;20538;-81
2023/08/20 00:38:36;;;;;;;6.75;5.65;;;;;;;16.26;100.00;93537.63;2088869;28;20033;-82
2023/08/20 00:39:38;;;;;;;6.25;5.57;;;;;;;16.19;100.00;93538.63;2082888;28;20091;-83
2023/08/20 00:40:38;;;;;;;5.88;5.18;;;;;;;16.17;100.00;93534.88;2097100;28;20028;-83
2023/08/20 00:41:39;;;;;;;7.32;5.97;;;;;;;16.21;100.00;93541.66;2075868;28;20022;-84
2023/08/20 00:42:40;;;;;;;6.50;5.38;;;;;;;16.20;100.00;93537.47;2088905;28;20029;-83
2023/08/20 00:43:42;;;;;;;6.38;5.72;;;;;;;16.21;100.00;93538.97;2082896;28;20037;-83
2023/08/20 00:44:44;;;;;;;10.27;5.18;;;;;;;16.19;100.00;93537.88;2073699;28;20021;-82
2023/08/20 00:45:45;;;;;;;6.20;5.40;;;;;;;16.16;100.00;93536.09;2081271;28;20243;-83
2023/08/20 00:46:47;;;;;;;6.60;5.47;;;;;;;16.28;100.00;93543.34;2081564;28;20438;-82
2023/08/20 00:47:48;;;;;;;5.75;4.82;;;;;;;16.28;100.00;93540.63;2088087;28;20032;-83
2023/08/20 00:49:12;;;;;;;6.38;5.78;;;;;;;16.28;100.00;93546.78;2089773;28;20029;-84
2023/08/20 00:50:13;;;;;;;9.15;5.22;;;;;;;16.30;100.00;93539.00;2081560;28;20085;-82
2023/08/20 00:51:14;;;;;;;6.78;5.53;;;;;;;16.25;100.00;93544.97;2079490;28;20067;-83
2023/08/20 00:52:17;;;;;;;6.07;5.50;;;;;;;16.23;100.00;93541.22;2098367;28;20099;-82
2023/08/20 00:53:18;;;;;;;9.10;5.53;;;;;;;16.16;100.00;93546.88;2091732;28;20025;-83
2023/08/20 00:54:20;;;;;;;9.55;5.78;;;;;;;16.11;100.00;93543.56;2079083;28;20028;-82
2023/08/20 00:55:21;;;;;;;6.03;5.22;;;;;;;16.09;100.00;93543.22;2080373;28;20389;-82
2023/08/20 00:56:22;;;;;;;7.57;5.50;;;;;;;16.13;100.00;93545.06;2096660;28;20028;-83
2023/08/20 00:57:23;;;;;;;5.75;5.25;;;;;;;16.10;100.00;93542.03;2082557;28;20040;-83
2023/08/20 00:58:24;;;;;;;9.40;5.60;;;;;;;16.15;100.00;93539.97;2082324;28;20025;-83
2023/08/20 00:59:26;;;;;;;7.15;5.75;;;;;;;16.13;100.00;93539.66;2096861;28;20055;-83
2023/08/20 01:00:27;;;;;;;6.00;5.40;;;;;;;16.05;100.00;93544.56;2090389;28;20024;-83
2023/08/20 01:01:29;;;;;;;6.47;5.78;;;;;;;16.07;100.00;93540.22;2093217;28;20024;-82
2023/08/20 01:02:29;;;;;;;6.43;5.55;;;;;;;16.10;100.00;93538.59;2096741;28;20082;-83
2023/08/20 01:03:30;;;;;;;8.77;5.40;;;;;;;16.06;100.00;93543.34;2081093;28;20032;-83
2023/08/20 01:04:32;;;;;;;5.30;4.90;;;;;;;16.04;100.00;93538.41;2079331;28;20060;-82
2023/08/20 01:05:43;;;;;;;8.13;5.57;;;;;;;16.07;100.00;93540.22;2081609;28;20382;-83
2023/08/20 01:07:17;;;;;;;7.32;5.80;;;;;;;16.09;100.00;93531.69;2088810;28;20048;-83
2023/08/20 01:08:39;;;;;;;6.45;5.40;;;;;;;16.03;100.00;93526.13;2089629;28;20020;-84
2023/08/20 01:10:09;;;;;;;6.10;5.50;;;;;;;16.00;100.00;93528.94;2089259;28;20066;-83
2023/08/20 01:11:16;;;;;;;6.68;5.47;;;;;;;15.99;100.00;93525.50;2084943;28;20021;-82
2023/08/20 01:12:19;;;;;;;8.95;5.47;;;;;;;15.97;100.00;93527.88;2087358;28;20033;-83
2023/08/20 01:13:20;;;;;;;7.35;5.90;;;;;;;16.03;100.00;93531.50;2091191;28;20098;-83
2023/08/20 01:14:21;;;;;;;5.97;5.38;;;;;;;16.07;100.00;93526.00;2087858;28;20021;-82
2023/08/20 01:15:23;;;;;;;7.00;5.97;;;;;;;16.03;100.00;93530.78;2080140;28;20025;-83
2023/08/20 01:16:24;;;;;;;7.30;5.47;;;;;;;15.98;100.00;93528.63;2080088;28;20021;-83
2023/08/20 01:17:25;;;;;;;6.53;5.88;;;;;;;15.97;100.00;93527.88;2080578;28;20100;-82
2023/08/20 01:18:26;;;;;;;5.88;5.38;;;;;;;16.05;100.00;93526.44;2090859;28;20485;-83
2023/08/20 01:19:27;;;;;;;6.60;5.90;;;;;;;16.07;100.00;93523.31;2097721;28;20024;-83
2023/08/20 01:20:39;;;;;;;7.50;5.22;;;;;;;16.00;100.00;93526.25;2083797;28;20060;-82
2023/08/20 01:22:04;;;;;;;7.10;5.15;;;;;;;16.00;100.00;93529.69;2068792;28;20034;-83
2023/08/20 01:23:20;;;;;;;6.03;5.47;;;;;;;16.01;100.00;93528.50;2092841;28;20431;-83
2023/08/20 01:24:23;;;;;;;5.95;5.35;;;;;;;16.02;100.00;93529.25;2099557;28;20105;-84
2023/08/20 01:25:43;;;;;;;7.57;5.82;;;;;;;16.00;100.00;93534.34;2096786;28;20028;-83
2023/08/20 01:27:04;;;;;;;6.40;5.53;;;;;;;16.03;100.00;93528.81;2087642;28;20139;-83
2023/08/20 01:28:30;;;;;;;7.03;5.35;;;;;;;16.04;100.00;93527.63;2088572;28;20033;-83
2023/08/20 01:29:32;;;;;;;7.47;5.75;;;;;;;15.93;100.00;93529.94;2084658;28;20024;-83
2023/08/20 01:30:35;;;;;;;6.85;5.45;;;;;;;15.94;100.00;93531.47;2089286;28;20450;-82
2023/08/20 01:31:36;;;;;;;8.18;5.50;;;;;;;15.95;100.00;93529.50;2077943;28;20120;-83
2023/08/20 01:32:41;;;;;;;10.38;6.20;;;;;;;15.86;100.00;93527.50;2088551;28;20025;-83
2023/08/20 01:33:43;;;;;;;6.03;5.35;;;;;;;15.80;100.00;93535.41;2065966;28;20022;-84
2023/08/20 01:34:45;;;;;;;6.07;5.30;;;;;;;15.84;100.00;93530.63;2073911;28;20025;-83
2023/08/20 01:35:46;;;;;;;8.45;5.85;;;;;;;15.86;100.00;93533.66;2083402;28;20029;-84
2023/08/20 01:36:47;;;;;;;6.00;5.40;;;;;;;15.89;100.00;93528.56;2086801;28;20036;-82
2023/08/20 01:37:48;;;;;;;6.30;5.70;;;;;;;15.80;100.00;93535.41;2074006;28;20022;-84
2023/08/20 01:38:49;;;;;;;8.57;5.63;;;;;;;15.78;100.00;93528.94;2083813;28;20402;-83
2023/08/20 01:39:53;;;;;;;6.22;5.53;;;;;;;15.79;100.00;93539.28;2103259;28;20473;-82
2023/08/20 01:40:54;;;;;;;6.10;5.50;;;;;;;15.80;100.00;93527.31;2089214;28;20029;-83
2023/08/20 01:41:57;;;;;;;6.68;5.28;;;;;;;15.84;100.00;93529.88;2081463;28;20025;-84
2023/08/20 01:42:58;;;;;;;6.45;5.82;;;;;;;15.88;100.00;93529.75;2083372;28;20029;-83
2023/08/20 01:43:59;;;;;;;8.77;6.20;;;;;;;15.84;100.00;93529.88;2097724;28;20029;-82
2023/08/20 01:45:00;;;;;;;6.03;5.38;;;;;;;15.83;100.00;93522.97;2089286;28;20488;-84
2023/08/20 01:46:02;;;;;;;7.93;5.90;;;;;;;15.83;100.00;93531.81;2084955;28;20064;-83
2023/08/20 01:47:03;;;;;;;6.85;5.55;;;;;;;15.84;100.00;93532.56;2089804;28;20497;-83
2023/08/20 01:48:04;;;;;;;8.25;5.45;;;;;;;15.86;100.00;93530.22;2086206;28;20021;-83
2023/08/20 01:49:05;;;;;;;6.43;5.78;;;;;;;15.81;100.00;93523.44;2081327;28;20026;-82
2023/08/20 01:50:06;;;;;;;6.05;5.50;;;;;;;15.81;100.00;93531.53;2090425;28;20033;-82
2023/08/20 01:51:09;;;;;;;6.38;5.88;;;;;;;15.77;100.00;93532.84;2101523;28;20039;-83
2023/08/20 01:52:10;;;;;;;6.18;5.57;;;;;;;15.82;100.00;93524.94;2081023;28;20580;-81
2023/08/20 01:53:11;;;;;;;6.30;5.70;;;;;;;15.76;100.00;93524.00;2078257;28;20045;-83
2023/08/20 01:54:13;;;;;;;5.55;5.07;;;;;;;15.76;100.00;93526.69;2085241;28;20110;-83
2023/08/20 01:55:14;;;;;;;8.55;6.00;;;;;;;15.77;100.00;93527.44;2079739;28;20125;-83
2023/08/20 01:56:15;;;;;;;9.38;5.97;;;;;;;15.76;100.00;93524.00;2095509;28;20075;-83
2023/08/20 01:57:16;;;;;;;9.45;6.05;;;;;;;15.79;100.00;93533.88;2080984;28;20029;-82
2023/08/20 01:58:17;;;;;;;7.07;6.32;;;;;;;15.74;100.00;93528.31;2087298;28;20021;-82
2023/08/20 01:59:18;;;;;;;5.93;5.32;;;;;;;15.73;100.00;93529.50;2097715;28;20020;-83
2023/08/20 02:00:19;;;;;;;9.05;5.70;;;;;;;15.76;100.00;93525.91;2088890;28;20032;-83
2023/08/20 02:01:20;;;;;;;8.27;5.95;;;;;;;15.73;100.00;93534.91;2094463;28;20135;-81
2023/08/20 02:02:22;;;;;;;6.35;5.75;;;;;;;15.65;100.00;93530.94;2089366;28;20021;-82
2023/08/20 02:03:23;;;;;;;7.88;5.65;;;;;;;15.67;100.00;93533.94;2096355;28;20039;-83
2023/08/20 02:04:24;;;;;;;6.85;6.15;;;;;;;15.72;100.00;93531.47;2082005;28;20037;-82
2023/08/20 02:05:25;;;;;;;7.03;5.80;;;;;;;15.70;100.00;93531.13;2072886;28;20407;-83
2023/08/20 02:06:26;;;;;;;8.02;5.68;;;;;;;15.70;100.00;93535.78;2080517;28;20509;-82
2023/08/20 02:07:27;;;;;;;11.68;6.22;;;;;;;15.78;100.00;93532.38;2068305;28;20100;-83
2023/08/20 02:08:28;;;;;;;6.50;5.78;;;;;;;15.72;100.00;93531.47;2082403;28;20091;-83
2023/08/20 02:09:29;;;;;;;6.43;5.45;;;;;;;15.69;100.00;93537.72;2088943;28;20028;-84
2023/08/20 02:10:30;;;;;;;7.90;6.22;;;;;;;15.66;100.00;93533.19;2088887;28;20060;-82
2023/08/20 02:11:35;;;;;;;5.65;5.25;;;;;;;15.69;100.00;93531.56;2072498;28;20061;-83
2023/08/20 02:12:36;;;;;;;6.15;5.53;;;;;;;15.65;100.00;93533.63;2073124;28;20121;-83
2023/08/20 02:13:37;;;;;;;6.30;5.65;;;;;;;15.57;100.00;93536.53;2088915;28;20354;-83
2023/08/20 02:14:38;;;;;;;7.38;5.82;;;;;;;15.62;100.00;93530.59;2090090;28;20036;-82
2023/08/20 02:15:39;;;;;;;8.48;6.28;;;;;;;15.65;100.00;93544.41;2088101;28;20116;-85
2023/08/20 02:16:40;;;;;;;7.40;5.88;;;;;;;15.65;100.00;93542.47;2084858;28;20824;-83
2023/08/20 02:17:41;;;;;;;9.15;6.30;;;;;;;15.62;100.00;93540.63;2074203;28;20026;-83
2023/08/20 02:18:42;;;;;;;6.60;6.00;;;;;;;15.63;100.00;93539.44;2074221;28;20065;-83
2023/08/20 02:19:43;;;;;;;8.85;5.93;;;;;;;15.64;100.00;93542.91;2080809;28;20128;-83
2023/08/20 02:22:37;;;;;;;6.47;5.88;;;;;;;15.53;100.00;93554.75;2139546;27;20219;-85
2023/08/20 02:23:38;;;;;;;7.18;5.68;;;;;;;15.55;100.00;93552.41;2121142;28;20027;-85
2023/08/20 02:24:39;;;;;;;6.72;5.82;;;;;;;15.59;100.00;93547.66;2112511;28;20088;-84
2023/08/20 02:25:40;;;;;;;6.90;6.30;;;;;;;15.58;100.00;93548.06;2097553;28;20417;-85
2023/08/20 02:26:43;;;;;;;9.00;6.20;;;;;;;15.55;100.00;93562.44;2096646;28;20376;-84
2023/08/20 02:27:44;;;;;;;6.70;6.15;;;;;;;15.58;100.00;93567.72;2104683;28;20031;-84
2023/08/20 02:28:45;;;;;;;6.53;5.75;;;;;;;15.53;100.00;93562.84;2104630;28;20062;-84
2023/08/20 02:29:46;;;;;;;6.68;5.97;;;;;;;15.58;100.00;93561.53;2096273;28;20048;-85
2023/08/20 02:30:47;;;;;;;6.43;5.70;;;;;;;15.51;100.00;93564.50;2096267;28;20028;-86
2023/08/20 02:31:50;;;;;;;6.43;5.82;;;;;;;15.56;100.00;93559.28;2102660;28;20028;-84
2023/08/20 02:32:51;;;;;;;6.72;6.10;;;;;;;15.53;100.00;93560.16;2104333;28;20039;-84
2023/08/20 02:33:53;;;;;;;6.53;5.95;;;;;;;15.55;100.00;93565.13;2099512;28;20030;-84
2023/08/20 02:34:54;;;;;;;6.72;6.18;;;;;;;15.56;100.00;93569.31;2104220;28;20537;-85
2023/08/20 02:35:55;;;;;;;6.60;6.10;;;;;;;15.52;100.00;93568.69;2099579;28;20032;-85
2023/08/20 02:36:56;;;;;;;7.57;6.03;;;;;;;15.51;100.00;93567.94;2096086;28;20031;-85
2023/08/20 02:37:57;;;;;;;7.65;6.57;;;;;;;15.59;100.00;93568.47;2097508;28;20039;-85
2023/08/20 02:38:58;;;;;;;7.43;6.15;;;;;;;15.54;100.00;93567.06;2096447;28;20052;-84
2023/08/20 02:39:59;;;;;;;7.45;6.75;;;;;;;15.55;100.00;93573.22;2112680;28;20031;-84
2023/08/20 02:41:02;;;;;;;6.55;5.93;;;;;;;15.50;100.00;93571.81;2121425;28;20027;-85
2023/08/20 02:42:03;;;;;;;7.50;6.72;;;;;;;15.52;100.00;93566.00;2104655;28;20024;-84
2023/08/20 02:43:04;;;;;;;7.05;6.45;;;;;;;15.43;100.00;93568.59;2104434;28;20027;-84
2023/08/20 02:44:05;;;;;;;9.68;6.43;;;;;;;15.43;100.00;93563.22;2104342;28;20032;-86
2023/08/20 02:45:07;;;;;;;6.75;6.13;;;;;;;15.45;100.00;93569.69;2097080;28;20667;-84
2023/08/20 02:46:08;;;;;;;6.50;5.90;;;;;;;15.48;100.00;93568.78;2095528;28;20052;-84
2023/08/20 02:47:09;;;;;;;7.93;6.90;;;;;;;15.50;100.00;93566.44;2096318;28;20024;-84
2023/08/20 02:48:10;;;;;;;10.10;6.75;;;;;;;15.51;100.00;93572.56;2101238;28;20085;-84
2023/08/20 02:49:11;;;;;;;7.45;6.35;;;;;;;15.44;100.00;93562.78;2090860;28;20036;-85
2023/08/20 02:50:12;;;;;;;7.75;6.15;;;;;;;15.39;100.00;93559.88;2097090;28;20058;-85
2023/08/20 02:51:13;;;;;;;11.38;6.82;;;;;;;15.38;100.00;93559.13;2097442;28;20469;-85
2023/08/20 02:52:14;;;;;;;6.90;6.25;;;;;;;15.43;100.00;93563.97;2104727;28;20040;-83
2023/08/20 02:53:15;;;;;;;7.68;6.40;;;;;;;15.45;100.00;93561.59;2104230;28;20058;-85
2023/08/20 02:54:16;;;;;;;7.82;6.70;;;;;;;15.43;100.00;93563.22;2112666;28;20054;-84
2023/08/20 02:55:17;;;;;;;6.90;6.28;;;;;;;15.45;100.00;93560.81;2104317;28;20082;-84
2023/08/20 02:56:18;;;;;;;6.85;5.85;;;;;;;15.44;100.00;93562.78;2095855;28;20063;-85
2023/08/20 02:57:19;;;;;;;6.45;5.85;;;;;;;15.44;100.00;93562.03;2102880;28;20580;-84
2023/08/20 02:58:20;;;;;;;9.48;6.55;;;;;;;15.41;100.00;93560.97;2096957;28;20040;-85
2023/08/20 02:59:21;;;;;;;7.63;6.22;;;;;;;15.45;100.00;93563.53;2103151;28;20020;-84
2023/08/20 03:00:22;;;;;;;9.02;6.18;;;;;;;15.39;100.00;93557.94;2103280;28;20123;-84
2023/08/20 03:01:25;;;;;;;7.25;6.03;;;;;;;15.37;100.00;93560.34;2104017;28;20029;-86
2023/08/20 03:02:26;;;;;;;7.93;7.18;;;;;;;15.40;100.00;93559.44;2104621;28;20115;-84
2023/08/20 03:03:27;;;;;;;6.40;5.72;;;;;;;15.38;100.00;93559.13;2103870;28;20453;-84
2023/08/20 03:04:28;;;;;;;7.18;6.40;;;;;;;15.34;100.00;93561.94;2096000;28;20358;-85
2023/08/20 03:05:29;;;;;;;6.72;6.10;;;;;;;15.40;100.00;93562.13;2104471;28;20376;-86
2023/08/20 03:06:30;;;;;;;6.70;6.00;;;;;;;15.35;100.00;93557.31;2104034;28;20021;-84
2023/08/20 03:07:32;;;;;;;6.80;6.20;;;;;;;15.38;100.00;93555.69;2087879;28;20033;-84
2023/08/20 03:08:33;;;;;;;6.43;5.93;;;;;;;15.36;100.00;93551.50;2101979;28;20454;-85
2023/08/20 03:09:33;;;;;;;7.78;5.80;;;;;;;15.34;100.00;93553.13;2104150;28;20028;-84
2023/08/20 03:10:34;;;;;;;7.13;6.45;;;;;;;15.25;100.00;93559.16;2112471;28;20062;-84
2023/08/20 03:11:35;;;;;;;7.50;6.90;;;;;;;15.33;100.00;93546.97;2103890;28;23879;-85
2023/08/20 03:12:36;;;;;;;7.70;6.07;;;;;;;15.38;100.00;93556.44;2098500;28;20020;-84
2023/08/20 03:13:38;;;;;;;9.77;6.78;;;;;;;15.31;100.00;93560.09;2107566;28;20039;-84
2023/08/20 03:14:38;;;;;;;8.73;6.30;;;;;;;15.29;100.00;93556.34;2112131;28;20119;-84
2023/08/20 03:15:39;;;;;;;7.57;5.63;;;;;;;15.30;100.00;93555.16;2101408;28;20427;-84
2023/08/20 03:16:40;;;;;;;6.60;6.07;;;;;;;15.27;100.00;93550.63;2105752;28;20028;-86
2023/08/20 03:17:41;;;;;;;8.00;6.60;;;;;;;15.24;100.00;93554.97;2104279;28;20024;-85
2023/08/20 03:18:42;;;;;;;9.13;6.88;;;;;;;15.36;100.00;93554.19;2101865;28;20120;-85
2023/08/20 03:20:05;;;;;;;7.22;6.60;;;;;;;15.33;100.00;93557.00;2096333;28;20037;-85
2023/08/20 03:21:06;;;;;;;6.90;6.07;;;;;;;15.43;100.00;93555.88;2098839;28;20154;-84
2023/08/20 03:22:07;;;;;;;7.68;6.20;;;;;;;15.38;100.00;93551.06;2110606;28;20043;-85
2023/08/20 03:23:08;;;;;;;7.03;6.30;;;;;;;15.43;100.00;93557.81;2103671;28;20047;-84
2023/08/20 03:24:09;;;;;;;11.00;6.80;;;;;;;15.40;100.00;93545.22;2104278;28;20086;-84
2023/08/20 03:25:10;;;;;;;7.28;5.95;;;;;;;15.38;100.00;93544.91;2099804;28;20534;-84
2023/08/20 03:26:12;;;;;;;8.57;6.35;;;;;;;15.38;100.00;93542.22;2106845;28;20436;-85
2023/08/20 03:27:12;;;;;;;8.57;6.30;;;;;;;15.38;100.00;93547.63;2095654;28;20505;-84
2023/08/20 03:28:13;;;;;;;6.90;6.30;;;;;;;15.41;100.00;93554.81;2099369;28;20038;-84
2023/08/20 03:29:14;;;;;;;7.07;6.47;;;;;;;15.35;100.00;93543.84;2095907;28;20058;-84
2023/08/20 03:30:15;;;;;;;7.47;6.60;;;;;;;15.38;100.00;93545.66;2092263;28;20115;-85
2023/08/20 03:31:16;;;;;;;6.65;6.00;;;;;;;15.38;100.00;93545.66;2095758;28;20377;-85
2023/08/20 03:32:18;;;;;;;9.23;6.32;;;;;;;15.42;100.00;93545.56;2100910;28;20024;-84
2023/08/20 03:33:19;;;;;;;7.00;6.35;;;;;;;15.33;100.00;93546.22;2094133;28;20025;-84
2023/08/20 03:34:20;;;;;;;9.20;6.18;;;;;;;15.38;100.00;93542.97;2090101;28;20064;-84
2023/08/20 03:35:21;;;;;;;9.60;6.50;;;;;;;15.34;100.00;93547.72;2098078;28;20024;-84
2023/08/20 03:36:21;;;;;;;6.90;6.30;;;;;;;15.32;100.00;93548.16;2098363;28;20358;-84
2023/08/20 03:37:22;;;;;;;7.63;6.70;;;;;;;15.34;100.00;93539.63;2090452;28;20025;-84
2023/08/20 03:38:23;;;;;;;7.30;6.63;;;;;;;15.34;100.00;93539.63;2087117;28;20080;-84
2023/08/20 03:39:24;;;;;;;8.43;6.60;;;;;;;15.42;100.00;93545.56;2089673;28;20052;-85
2023/08/20 03:40:27;;;;;;;7.18;6.57;;;;;;;15.42;100.00;93538.22;2089758;28;20048;-86
2023/08/20 03:41:28;;;;;;;7.18;6.57;;;;;;;15.42;100.00;93538.22;2089933;28;20048;-85
2023/08/20 03:42:29;;;;;;;7.40;6.80;;;;;;;15.40;100.00;93537.13;2088647;28;20084;-85
2023/08/20 03:43:30;;;;;;;6.95;6.35;;;;;;;15.39;100.00;93539.09;2085563;28;20060;-84
2023/08/20 03:44:31;;;;;;;9.07;6.35;;;;;;;15.38;100.00;93532.19;2082135;28;20029;-84
2023/08/20 03:45:32;;;;;;;8.18;6.85;;;;;;;15.37;100.00;93538.78;2104896;28;20081;-84
2023/08/20 03:46:33;;;;;;;7.03;6.32;;;;;;;15.48;100.00;93533.03;2106653;28;20027;-84
2023/08/20 03:47:34;;;;;;;6.57;6.07;;;;;;;15.52;100.00;93537.09;2098521;28;20431;-86
2023/08/20 03:48:34;;;;;;;7.50;6.78;;;;;;;15.50;100.00;93536.81;2081677;28;20355;-84
2023/08/20 03:49:36;;;;;;;7.85;6.55;;;;;;;15.57;100.00;93525.75;2090951;28;20043;-83
2023/08/20 03:50:37;;;;;;;7.82;6.90;;;;;;;15.67;100.00;93531.25;2083638;28;20343;-84
2023/08/20 03:51:38;;;;;;;6.70;6.05;;;;;;;15.64;100.00;93526.72;2097782;28;20052;-84
2023/08/20 03:52:39;;;;;;;8.52;6.57;;;;;;;15.55;100.00;93528.16;2102526;28;20019;-85
2023/08/20 03:53:40;;;;;;;7.07;6.38;;;;;;;15.54;100.00;93529.34;2099495;28;20099;-84
2023/08/20 03:54:41;;;;;;;7.13;6.38;;;;;;;15.56;100.00;93531.59;2105216;28;20024;-84
2023/08/20 03:55:47;;;;;;;9.07;6.47;;;;;;;15.61;100.00;93529.09;2095953;28;20024;-84
2023/08/20 03:56:48;;;;;;;7.35;6.65;;;;;;;15.50;100.00;93523.31;2086109;28;20028;-86
2023/08/20 03:57:49;;;;;;;7.18;6.50;;;;;;;15.47;100.00;93529.56;2095767;28;20031;-84
2023/08/20 03:58:50;;;;;;;7.25;6.50;;;;;;;15.50;100.00;93527.97;2098195;28;20031;-84
2023/08/20 03:59:51;;;;;;;8.55;6.88;;;;;;;15.52;100.00;93523.63;2089298;28;20056;-85
2023/08/20 04:00:52;;;;;;;7.88;6.85;;;;;;;15.52;100.00;93525.56;2093082;28;20070;-84
2023/08/20 04:01:53;;;;;;;8.85;6.50;;;;;;;15.52;100.00;93523.63;2089694;28;20033;-84
2023/08/20 04:02:54;;;;;;;8.95;6.45;;;;;;;15.50;100.00;93527.97;2090441;28;20370;-84
2023/08/20 04:03:55;;;;;;;7.15;6.53;;;;;;;15.47;100.00;93526.88;2094963;28;20024;-84
2023/08/20 04:04:57;;;;;;;9.27;6.53;;;;;;;15.49;100.00;93527.19;2102061;28;20028;-85
2023/08/20 04:05:58;;;;;;;7.18;6.47;;;;;;;15.52;100.00;93528.28;2094617;28;20043;-84
2023/08/20 04:06:59;;;;;;;7.30;6.15;;;;;;;15.57;100.00;93528.47;2093744;28;20457;-83
2023/08/20 04:08:00;;;;;;;10.50;7.13;;;;;;;15.48;100.00;93528.38;2090111;28;20213;-86
2023/08/20 04:09:09;;;;;;;8.68;6.60;;;;;;;15.42;100.00;93527.44;2094592;28;20035;-84
2023/08/20 04:10:10;;;;;;;7.88;7.10;;;;;;;15.42;100.00;93532.84;2092065;28;20025;-84
2023/08/20 04:11:11;;;;;;;8.45;6.53;;;;;;;15.46;100.00;93525.38;2098217;28;20539;-84
2023/08/20 04:12:12;;;;;;;13.23;7.63;;;;;;;15.37;100.00;93530.69;2097911;28;20326;-84
2023/08/20 04:13:13;;;;;;;7.55;6.50;;;;;;;15.43;100.00;93533.59;2089786;28;20035;-86
2023/08/20 04:14:14;;;;;;;6.50;5.90;;;;;;;15.40;100.00;93532.50;2098252;28;20027;-84
2023/08/20 04:15:15;;;;;;;7.00;6.18;;;;;;;15.42;100.00;93532.84;2091850;28;20452;-85
2023/08/20 04:16:19;;;;;;;8.88;6.82;;;;;;;15.29;100.00;93534.81;2088056;28;20119;-85
2023/08/20 04:17:20;;;;;;;7.90;6.65;;;;;;;15.23;100.00;93536.53;2089272;28;20109;-84
2023/08/20 04:18:22;;;;;;;6.25;5.75;;;;;;;15.25;100.00;93534.19;2086507;28;20141;-84
2023/08/20 04:19:22;;;;;;;9.13;6.45;;;;;;;15.31;100.00;93532.44;2097078;28;20063;-84
2023/08/20 04:20:23;;;;;;;7.53;6.68;;;;;;;15.33;100.00;93532.75;2096689;28;20051;-85
2023/08/20 04:21:24;;;;;;;7.55;6.85;;;;;;;15.27;100.00;93537.16;2098219;28;20029;-84
2023/08/20 04:22:25;;;;;;;6.75;6.13;;;;;;;15.31;100.00;93540.50;2105565;28;20044;-85
2023/08/20 04:23:26;;;;;;;7.30;6.60;;;;;;;15.36;100.00;93542.63;2097881;28;20132;-85
2023/08/20 04:24:27;;;;;;;6.75;6.15;;;;;;;15.34;100.00;93536.94;2089941;28;20107;-84
2023/08/20 04:25:28;;;;;;;7.18;6.50;;;;;;;15.32;100.00;93540.09;2089746;28;20048;-86
2023/08/20 04:26:29;;;;;;;8.77;6.80;;;;;;;15.32;100.00;93545.47;2089644;28;20444;-84
2023/08/20 04:27:30;;;;;;;7.50;6.75;;;;;;;15.32;100.00;93548.16;2090078;28;20024;-85
2023/08/20 04:28:31;;;;;;;8.27;7.00;;;;;;;15.36;100.00;93542.63;2090596;28;20017;-84
2023/08/20 04:29:32;;;;;;;7.47;6.78;;;;;;;15.36;100.00;93543.41;2089817;28;20021;-87
2023/08/20 04:30:36;;;;;;;7.10;6.45;;;;;;;15.37;100.00;93541.47;2087279;28;20101;-85
2023/08/20 04:31:37;;;;;;;7.10;6.45;;;;;;;15.32;100.00;93542.78;2090274;28;20466;-85
2023/08/20 04:32:38;;;;;;;8.13;6.57;;;;;;;15.34;100.00;93537.69;2097919;28;20025;-83
2023/08/20 04:33:41;;;;;;;7.68;6.57;;;;;;;15.31;100.00;93546.63;2099879;28;20044;-84
2023/08/20 04:34:42;;;;;;;6.90;6.25;;;;;;;15.31;100.00;93549.34;2090516;28;20493;-85
2023/08/20 04:35:43;;;;;;;7.78;7.10;;;;;;;15.29;100.00;93542.91;2089292;28;20024;-84
2023/08/20 04:36:44;;;;;;;7.40;6.70;;;;;;;15.34;100.00;93547.72;2097775;28;20021;-84
2023/08/20 04:37:45;;;;;;;6.30;5.90;;;;;;;15.34;100.00;93543.09;2089666;28;20051;-86
2023/08/20 04:38:46;;;;;;;6.75;5.97;;;;;;;15.34;100.00;93548.47;2084460;28;20453;-85
2023/08/20 04:39:47;;;;;;;8.30;6.88;;;;;;;15.38;100.00;93542.97;2083742;28;20030;-84
2023/08/20 04:40:48;;;;;;;10.10;6.60;;;;;;;15.36;100.00;93551.50;2089667;28;20063;-84
2023/08/20 04:41:51;;;;;;;6.68;6.05;;;;;;;15.27;100.00;93548.69;2090703;28;20421;-84
2023/08/20 04:42:52;;;;;;;6.68;6.18;;;;;;;15.33;100.00;93548.91;2097969;28;20032;-86
2023/08/20 04:43:53;;;;;;;7.53;6.75;;;;;;;15.37;100.00;93546.88;2095612;28;20063;-86
2023/08/20 04:44:54;;;;;;;7.88;6.57;;;;;;;15.31;100.00;93549.34;2088440;28;20021;-85
2023/08/20 04:45:55;;;;;;;9.45;6.80;;;;;;;15.31;100.00;93552.03;2080716;28;20044;-84
2023/08/20 04:46:56;;;;;;;10.93;7.00;;;;;;;15.32;100.00;93552.78;2084766;28;20433;-84
2023/08/20 04:47:57;;;;;;;7.50;6.90;;;;;;;15.36;100.00;93548.03;2094486;28;20033;-84
2023/08/20 04:48:57;;;;;;;6.78;6.18;;;;;;;15.39;100.00;93549.13;2093538;28;20495;-84
2023/08/20 04:49:58;;;;;;;7.63;6.25;;;;;;;15.31;100.00;93545.88;2085127;28;20043;-85
2023/08/20 04:51:00;;;;;;;6.85;6.30;;;;;;;15.42;100.00;93554.38;2097975;28;20127;-85
2023/08/20 04:52:01;;;;;;;6.97;6.38;;;;;;;15.43;100.00;93552.44;2102592;28;20081;-84